Terminal Aerodrome Forecast
Issued by NWS Shreveport, LA

Home | Current Version | Previous Version | Text Only | Print | Product List | Glossary On
Versions: 1 2 3 4 5 6 7 8 9 10 11 12 13 14 15 16
393
FTUS44 KSHV 252128 AAA
TAFGGG
TAF AMD
KGGG 252128Z 2521/2618 16006KT P6SM VCSH SCT035 BKN250
     FM260200 VRB04KT P6SM FEW040 SCT150 BKN250
     FM261000 35004KT P6SM VCSH BKN015
     FM261500 02009KT P6SM VCSH OVC015=

USA.gov is the U.S. government's official web portal to all federal, state and local government web resources and services.